Terminal Aerodrome Forecast
Issued by NWS

Home | Current Version | Previous Version | Text Only | Print | Product List | Glossary On
Versions: 1 2 3 4 5 6 7 8 9 10 11 12 13
000
FTUS43 KPAH 250500
TAFOWB
TAF
KOWB 250520Z 2506/2606 20003KT P6SM SCT040 BKN250
      TEMPO 2509/2512 5SM BR
     FM251400 24005KT P6SM SCT040 BKN100
     FM251900 29007KT P6SM SCT100 BKN250
     FM260100 VRB03KT P6SM SCT250=

USA.gov is the U.S. government's official web portal to all federal, state and local government web resources and services.